sensor_id;sensor_type;location;lat;lon;timestamp;temperature;humidity
21590;DHT22;10957;50.968;6.828;2023-05-07T00:03:27;14.70;99.90
21590;DHT22;10957;50.968;6.828;2023-05-07T00:08:29;14.60;99.90
21590;DHT22;10957;50.968;6.828;2023-05-07T00:13:30;14.50;99.90
21590;DHT22;10957;50.968;6.828;2023-05-07T00:18:36;14.90;99.90
21590;DHT22;10957;50.968;6.828;2023-05-07T00:23:37;14.80;99.90
21590;DHT22;10957;50.968;6.828;2023-05-07T00:28:38;14.70;99.90
21590;DHT22;10957;50.968;6.828;2023-05-07T00:33:40;14.60;99.90
21590;DHT22;10957;50.968;6.828;2023-05-07T00:38:41;14.50;99.90
21590;DHT22;10957;50.968;6.828;2023-05-07T00:43:43;14.70;99.90
21590;DHT22;10957;50.968;6.828;2023-05-07T00:48:44;15.00;99.90
21590;DHT22;10957;50.968;6.828;2023-05-07T00:53:46;14.70;99.90
21590;DHT22;10957;50.968;6.828;2023-05-07T00:58:48;14.80;99.90
21590;DHT22;10957;50.968;6.828;2023-05-07T01:03:49;14.70;99.90
21590;DHT22;10957;50.968;6.828;2023-05-07T01:08:51;14.70;99.90
21590;DHT22;10957;50.968;6.828;2023-05-07T01:13:55;14.40;99.90
21590;DHT22;10957;50.968;6.828;2023-05-07T01:18:57;14.60;99.90
21590;DHT22;10957;50.968;6.828;2023-05-07T01:23:59;14.80;99.90
21590;DHT22;10957;50.968;6.828;2023-05-07T01:29:02;14.80;99.90
21590;DHT22;10957;50.968;6.828;2023-05-07T01:34:05;14.60;99.90
21590;DHT22;10957;50.968;6.828;2023-05-07T01:39:11;14.50;99.90
21590;DHT22;10957;50.968;6.828;2023-05-07T01:44:14;14.00;99.90
21590;DHT22;10957;50.968;6.828;2023-05-07T01:49:16;14.50;99.90
21590;DHT22;10957;50.968;6.828;2023-05-07T01:54:18;14.60;99.90
21590;DHT22;10957;50.968;6.828;2023-05-07T01:59:20;14.30;99.90
21590;DHT22;10957;50.968;6.828;2023-05-07T02:04:21;14.40;99.90
21590;DHT22;10957;50.968;6.828;2023-05-07T02:09:23;14.40;99.90
21590;DHT22;10957;50.968;6.828;2023-05-07T02:14:25;14.30;99.90
21590;DHT22;10957;50.968;6.828;2023-05-07T02:19:27;14.10;99.90
21590;DHT22;10957;50.968;6.828;2023-05-07T02:24:28;14.10;99.90
21590;DHT22;10957;50.968;6.828;2023-05-07T02:29:30;14.00;99.90
21590;DHT22;10957;50.968;6.828;2023-05-07T02:34:31;13.90;99.90
21590;DHT22;10957;50.968;6.828;2023-05-07T02:39:32;13.70;99.90
21590;DHT22;10957;50.968;6.828;2023-05-07T02:44:34;13.70;99.90
21590;DHT22;10957;50.968;6.828;2023-05-07T02:49:37;13.70;99.90
21590;DHT22;10957;50.968;6.828;2023-05-07T02:54:38;13.80;99.90
21590;DHT22;10957;50.968;6.828;2023-05-07T02:59:40;13.80;99.90
21590;DHT22;10957;50.968;6.828;2023-05-07T03:04:41;13.70;99.90
21590;DHT22;10957;50.968;6.828;2023-05-07T03:09:42;13.80;99.90
21590;DHT22;10957;50.968;6.828;2023-05-07T03:14:44;14.00;99.90
21590;DHT22;10957;50.968;6.828;2023-05-07T03:19:45;13.80;99.90
21590;DHT22;10957;50.968;6.828;2023-05-07T03:24:47;13.70;99.90
21590;DHT22;10957;50.968;6.828;2023-05-07T03:29:48;13.90;99.90
21590;DHT22;10957;50.968;6.828;2023-05-07T03:34:50;13.60;99.90
21590;DHT22;10957;50.968;6.828;2023-05-07T03:39:52;13.50;99.90
21590;DHT22;10957;50.968;6.828;2023-05-07T03:44:54;13.70;99.90
21590;DHT22;10957;50.968;6.828;2023-05-07T03:49:56;13.40;99.90
21590;DHT22;10957;50.968;6.828;2023-05-07T03:54:59;13.50;99.90
21590;DHT22;10957;50.968;6.828;2023-05-07T04:00:01;13.40;99.90
21590;DHT22;10957;50.968;6.828;2023-05-07T04:05:08;13.40;99.90
21590;DHT22;10957;50.968;6.828;2023-05-07T04:10:10;13.30;99.90
21590;DHT22;10957;50.968;6.828;2023-05-07T04:15:14;13.30;99.90
21590;DHT22;10957;50.968;6.828;2023-05-07T04:20:16;13.40;99.90
21590;DHT22;10957;50.968;6.828;2023-05-07T04:25:21;13.50;99.90
21590;DHT22;10957;50.968;6.828;2023-05-07T04:30:23;13.80;99.90
21590;DHT22;10957;50.968;6.828;2023-05-07T04:35:24;13.90;99.90
21590;DHT22;10957;50.968;6.828;2023-05-07T04:40:26;13.80;99.90
21590;DHT22;10957;50.968;6.828;2023-05-07T04:45:29;13.90;99.90
21590;DHT22;10957;50.968;6.828;2023-05-07T04:50:30;13.90;99.90
21590;DHT22;10957;50.968;6.828;2023-05-07T04:55:35;14.10;99.90
21590;DHT22;10957;50.968;6.828;2023-05-07T05:00:38;13.80;99.90
21590;DHT22;10957;50.968;6.828;2023-05-07T05:05:41;13.90;99.90
21590;DHT22;10957;50.968;6.828;2023-05-07T05:10:43;14.20;99.90
21590;DHT22;10957;50.968;6.828;2023-05-07T05:15:45;14.40;99.90
21590;DHT22;10957;50.968;6.828;2023-05-07T05:20:47;14.50;99.90
21590;DHT22;10957;50.968;6.828;2023-05-07T05:25:48;14.40;99.90
21590;DHT22;10957;50.968;6.828;2023-05-07T05:30:50;14.50;99.90
21590;DHT22;10957;50.968;6.828;2023-05-07T05:35:54;14.70;99.90
21590;DHT22;10957;50.968;6.828;2023-05-07T05:40:55;14.70;99.90
21590;DHT22;10957;50.968;6.828;2023-05-07T05:45:57;14.60;99.90
21590;DHT22;10957;50.968;6.828;2023-05-07T05:50:58;14.70;99.90
21590;DHT22;10957;50.968;6.828;2023-05-07T05:56:00;14.50;99.90
21590;DHT22;10957;50.968;6.828;2023-05-07T06:01:01;15.10;99.90
21590;DHT22;10957;50.968;6.828;2023-05-07T06:06:04;14.90;99.90
21590;DHT22;10957;50.968;6.828;2023-05-07T06:11:06;15.10;99.90
21590;DHT22;10957;50.968;6.828;2023-05-07T06:16:10;15.50;99.90
21590;DHT22;10957;50.968;6.828;2023-05-07T06:21:13;15.30;99.90
21590;DHT22;10957;50.968;6.828;2023-05-07T06:26:15;15.20;99.90
21590;DHT22;10957;50.968;6.828;2023-05-07T06:31:20;15.60;99.90
21590;DHT22;10957;50.968;6.828;2023-05-07T06:36:28;15.80;99.90
21590;DHT22;10957;50.968;6.828;2023-05-07T06:41:32;16.00;99.90
21590;DHT22;10957;50.968;6.828;2023-05-07T06:46:41;16.20;99.90
21590;DHT22;10957;50.968;6.828;2023-05-07T06:51:43;16.30;90.10
21590;DHT22;10957;50.968;6.828;2023-05-07T06:56:45;16.30;1.00
21590;DHT22;10957;50.968;6.828;2023-05-07T07:01:47;16.20;1.00
21590;DHT22;10957;50.968;6.828;2023-05-07T07:06:48;16.60;1.00
21590;DHT22;10957;50.968;6.828;2023-05-07T07:11:49;16.90;1.00
21590;DHT22;10957;50.968;6.828;2023-05-07T07:16:51;17.20;1.00
21590;DHT22;10957;50.968;6.828;2023-05-07T07:21:54;17.40;99.90
21590;DHT22;10957;50.968;6.828;2023-05-07T07:26:56;17.80;99.90
21590;DHT22;10957;50.968;6.828;2023-05-07T07:31:58;18.20;99.90
21590;DHT22;10957;50.968;6.828;2023-05-07T07:37:01;18.50;99.90
21590;DHT22;10957;50.968;6.828;2023-05-07T07:42:08;18.60;34.90
21590;DHT22;10957;50.968;6.828;2023-05-07T07:47:09;18.90;90.20
21590;DHT22;10957;50.968;6.828;2023-05-07T07:52:11;18.50;1.00
21590;DHT22;10957;50.968;6.828;2023-05-07T07:57:13;18.50;43.60
21590;DHT22;10957;50.968;6.828;2023-05-07T08:02:15;18.20;1.00
21590;DHT22;10957;50.968;6.828;2023-05-07T08:07:16;18.40;1.00
21590;DHT22;10957;50.968;6.828;2023-05-07T08:12:21;18.50;1.00
21590;DHT22;10957;50.968;6.828;2023-05-07T08:17:23;18.50;1.00
21590;DHT22;10957;50.968;6.828;2023-05-07T08:22:25;18.60;1.00
21590;DHT22;10957;50.968;6.828;2023-05-07T08:27:27;18.70;1.00
21590;DHT22;10957;50.968;6.828;2023-05-07T08:32:28;19.20;1.00
21590;DHT22;10957;50.968;6.828;2023-05-07T08:37:29;19.30;1.00
21590;DHT22;10957;50.968;6.828;2023-05-07T08:42:34;19.60;1.00
21590;DHT22;10957;50.968;6.828;2023-05-07T08:47:44;20.20;1.00
21590;DHT22;10957;50.968;6.828;2023-05-07T08:52:47;20.40;1.00
21590;DHT22;10957;50.968;6.828;2023-05-07T08:57:50;20.20;1.00
21590;DHT22;10957;50.968;6.828;2023-05-07T09:02:54;20.30;1.00
21590;DHT22;10957;50.968;6.828;2023-05-07T09:07:59;21.00;1.00
21590;DHT22;10957;50.968;6.828;2023-05-07T09:13:00;20.90;1.00
21590;DHT22;10957;50.968;6.828;2023-05-07T09:18:04;20.80;1.00
21590;DHT22;10957;50.968;6.828;2023-05-07T09:23:07;20.80;1.00
21590;DHT22;10957;50.968;6.828;2023-05-07T09:28:10;21.30;1.00
21590;DHT22;10957;50.968;6.828;2023-05-07T09:33:12;21.50;1.00
21590;DHT22;10957;50.968;6.828;2023-05-07T09:38:19;21.50;1.00
21590;DHT22;10957;50.968;6.828;2023-05-07T09:43:23;21.70;1.00
21590;DHT22;10957;50.968;6.828;2023-05-07T09:48:30;22.20;1.00
21590;DHT22;10957;50.968;6.828;2023-05-07T09:53:33;22.10;1.00
21590;DHT22;10957;50.968;6.828;2023-05-07T09:58:39;22.40;1.00
21590;DHT22;10957;50.968;6.828;2023-05-07T10:03:43;22.60;1.00
21590;DHT22;10957;50.968;6.828;2023-05-07T10:08:46;22.90;1.00
21590;DHT22;10957;50.968;6.828;2023-05-07T10:13:48;22.70;99.90
21590;DHT22;10957;50.968;6.828;2023-05-07T10:18:51;23.00;99.90
21590;DHT22;10957;50.968;6.828;2023-05-07T10:24:19;22.40;99.90
21590;DHT22;10957;50.968;6.828;2023-05-07T10:29:40;22.50;99.90
21590;DHT22;10957;50.968;6.828;2023-05-07T10:34:45;22.60;99.90
21590;DHT22;10957;50.968;6.828;2023-05-07T10:39:48;22.60;99.90
21590;DHT22;10957;50.968;6.828;2023-05-07T10:44:50;22.50;99.90
21590;DHT22;10957;50.968;6.828;2023-05-07T11:05:29;22.10;99.90
21590;DHT22;10957;50.968;6.828;2023-05-07T11:10:54;22.40;99.90
21590;DHT22;10957;50.968;6.828;2023-05-07T11:16:21;22.10;99.90
21590;DHT22;10957;50.968;6.828;2023-05-07T11:21:41;21.90;99.90
21590;DHT22;10957;50.968;6.828;2023-05-07T11:27:01;21.70;99.90
21590;DHT22;10957;50.968;6.828;2023-05-07T11:32:04;21.80;99.90
21590;DHT22;10957;50.968;6.828;2023-05-07T11:37:17;21.70;99.90
21590;DHT22;10957;50.968;6.828;2023-05-07T11:42:29;21.70;99.90
21590;DHT22;10957;50.968;6.828;2023-05-07T11:47:31;21.70;99.90
21590;DHT22;10957;50.968;6.828;2023-05-07T11:52:32;21.60;99.90
21590;DHT22;10957;50.968;6.828;2023-05-07T11:57:33;21.60;99.90
21590;DHT22;10957;50.968;6.828;2023-05-07T12:02:35;21.80;99.90
21590;DHT22;10957;50.968;6.828;2023-05-07T12:07:36;21.90;99.90
21590;DHT22;10957;50.968;6.828;2023-05-07T12:12:39;22.10;99.90
21590;DHT22;10957;50.968;6.828;2023-05-07T12:17:41;22.10;99.90
21590;DHT22;10957;50.968;6.828;2023-05-07T12:22:42;22.20;99.90
21590;DHT22;10957;50.968;6.828;2023-05-07T12:27:44;22.20;99.90
21590;DHT22;10957;50.968;6.828;2023-05-07T12:32:45;22.10;99.90
21590;DHT22;10957;50.968;6.828;2023-05-07T12:37:55;22.10;99.90
21590;DHT22;10957;50.968;6.828;2023-05-07T12:42:59;21.60;99.90
21590;DHT22;10957;50.968;6.828;2023-05-07T12:48:01;21.90;99.90
21590;DHT22;10957;50.968;6.828;2023-05-07T12:53:04;21.80;99.90
21590;DHT22;10957;50.968;6.828;2023-05-07T12:58:15;21.60;99.90
21590;DHT22;10957;50.968;6.828;2023-05-07T13:03:33;21.40;99.90
21590;DHT22;10957;50.968;6.828;2023-05-07T13:08:37;21.30;99.90
21590;DHT22;10957;50.968;6.828;2023-05-07T13:13:39;21.20;99.90
21590;DHT22;10957;50.968;6.828;2023-05-07T13:18:41;21.00;99.90
21590;DHT22;10957;50.968;6.828;2023-05-07T13:23:44;20.80;99.90
21590;DHT22;10957;50.968;6.828;2023-05-07T13:28:45;20.70;99.90
21590;DHT22;10957;50.968;6.828;2023-05-07T13:33:47;20.60;99.90
21590;DHT22;10957;50.968;6.828;2023-05-07T13:38:48;20.70;99.90
21590;DHT22;10957;50.968;6.828;2023-05-07T13:43:50;20.80;99.90
21590;DHT22;10957;50.968;6.828;2023-05-07T13:48:52;20.80;99.90
21590;DHT22;10957;50.968;6.828;2023-05-07T13:53:53;20.70;99.90
21590;DHT22;10957;50.968;6.828;2023-05-07T13:58:55;20.60;99.90
21590;DHT22;10957;50.968;6.828;2023-05-07T14:03:56;20.50;99.90
21590;DHT22;10957;50.968;6.828;2023-05-07T14:09:01;20.20;99.90
21590;DHT22;10957;50.968;6.828;2023-05-07T14:14:02;20.00;99.90
21590;DHT22;10957;50.968;6.828;2023-05-07T14:19:03;20.10;99.90
21590;DHT22;10957;50.968;6.828;2023-05-07T14:24:06;20.10;99.90
21590;DHT22;10957;50.968;6.828;2023-05-07T14:29:09;20.10;99.90
21590;DHT22;10957;50.968;6.828;2023-05-07T14:34:10;20.20;1.00
21590;DHT22;10957;50.968;6.828;2023-05-07T14:39:11;20.00;1.00
21590;DHT22;10957;50.968;6.828;2023-05-07T14:44:13;20.30;1.00
21590;DHT22;10957;50.968;6.828;2023-05-07T14:49:14;20.20;1.00
21590;DHT22;10957;50.968;6.828;2023-05-07T14:54:18;20.00;1.00
21590;DHT22;10957;50.968;6.828;2023-05-07T14:59:19;19.80;1.00
21590;DHT22;10957;50.968;6.828;2023-05-07T15:04:22;19.60;1.00
21590;DHT22;10957;50.968;6.828;2023-05-07T15:09:24;19.70;1.00
21590;DHT22;10957;50.968;6.828;2023-05-07T15:14:25;19.80;1.00
21590;DHT22;10957;50.968;6.828;2023-05-07T15:19:27;20.10;1.00
21590;DHT22;10957;50.968;6.828;2023-05-07T15:24:30;20.20;1.00
21590;DHT22;10957;50.968;6.828;2023-05-07T15:29:31;20.40;1.00
21590;DHT22;10957;50.968;6.828;2023-05-07T15:34:34;20.40;1.00
21590;DHT22;10957;50.968;6.828;2023-05-07T15:39:36;20.40;1.00
21590;DHT22;10957;50.968;6.828;2023-05-07T15:44:37;20.40;1.00
21590;DHT22;10957;50.968;6.828;2023-05-07T15:49:39;20.50;1.00
21590;DHT22;10957;50.968;6.828;2023-05-07T15:54:41;20.20;99.90
21590;DHT22;10957;50.968;6.828;2023-05-07T15:59:42;20.30;99.90
21590;DHT22;10957;50.968;6.828;2023-05-07T16:04:45;20.30;99.90
21590;DHT22;10957;50.968;6.828;2023-05-07T16:09:46;20.40;1.00
21590;DHT22;10957;50.968;6.828;2023-05-07T16:14:47;20.30;1.00
21590;DHT22;10957;50.968;6.828;2023-05-07T16:19:50;20.20;1.00
21590;DHT22;10957;50.968;6.828;2023-05-07T16:24:51;20.00;1.00
21590;DHT22;10957;50.968;6.828;2023-05-07T16:29:53;20.00;1.00
21590;DHT22;10957;50.968;6.828;2023-05-07T16:34:54;19.90;1.00
21590;DHT22;10957;50.968;6.828;2023-05-07T16:39:55;20.10;1.00
21590;DHT22;10957;50.968;6.828;2023-05-07T16:44:56;19.90;1.00
21590;DHT22;10957;50.968;6.828;2023-05-07T16:49:58;19.90;1.00
21590;DHT22;10957;50.968;6.828;2023-05-07T16:55:00;19.80;1.00
21590;DHT22;10957;50.968;6.828;2023-05-07T17:00:02;19.70;99.90
21590;DHT22;10957;50.968;6.828;2023-05-07T17:05:07;19.60;99.90
21590;DHT22;10957;50.968;6.828;2023-05-07T17:10:09;19.50;99.90
21590;DHT22;10957;50.968;6.828;2023-05-07T17:15:10;19.50;99.90
21590;DHT22;10957;50.968;6.828;2023-05-07T17:20:12;19.30;99.90
21590;DHT22;10957;50.968;6.828;2023-05-07T17:25:13;19.20;99.90
21590;DHT22;10957;50.968;6.828;2023-05-07T17:30:15;19.20;99.90
21590;DHT22;10957;50.968;6.828;2023-05-07T17:35:16;19.10;1.00
21590;DHT22;10957;50.968;6.828;2023-05-07T17:40:21;19.00;1.00
21590;DHT22;10957;50.968;6.828;2023-05-07T17:45:22;18.90;1.00
21590;DHT22;10957;50.968;6.828;2023-05-07T17:50:23;18.80;1.00
21590;DHT22;10957;50.968;6.828;2023-05-07T17:55:25;18.80;1.00
21590;DHT22;10957;50.968;6.828;2023-05-07T18:00:26;18.70;1.00
21590;DHT22;10957;50.968;6.828;2023-05-07T18:05:28;18.70;1.00
21590;DHT22;10957;50.968;6.828;2023-05-07T18:10:29;18.70;1.00
21590;DHT22;10957;50.968;6.828;2023-05-07T18:15:30;18.50;1.00
21590;DHT22;10957;50.968;6.828;2023-05-07T18:20:32;18.50;1.00
21590;DHT22;10957;50.968;6.828;2023-05-07T18:25:33;18.40;1.00
21590;DHT22;10957;50.968;6.828;2023-05-07T18:30:34;18.40;1.00
21590;DHT22;10957;50.968;6.828;2023-05-07T18:35:36;18.30;1.00
21590;DHT22;10957;50.968;6.828;2023-05-07T18:40:37;18.20;1.00
21590;DHT22;10957;50.968;6.828;2023-05-07T18:45:46;18.10;1.00
21590;DHT22;10957;50.968;6.828;2023-05-07T18:50:48;18.10;1.00
21590;DHT22;10957;50.968;6.828;2023-05-07T18:55:50;18.00;1.00
21590;DHT22;10957;50.968;6.828;2023-05-07T19:00:52;17.80;1.00
21590;DHT22;10957;50.968;6.828;2023-05-07T19:05:53;17.80;1.00
21590;DHT22;10957;50.968;6.828;2023-05-07T19:10:56;17.70;1.00
21590;DHT22;10957;50.968;6.828;2023-05-07T19:15:57;17.60;1.00
21590;DHT22;10957;50.968;6.828;2023-05-07T19:20:58;17.60;1.00
21590;DHT22;10957;50.968;6.828;2023-05-07T19:26:00;17.50;1.00
21590;DHT22;10957;50.968;6.828;2023-05-07T19:31:02;17.40;1.00
21590;DHT22;10957;50.968;6.828;2023-05-07T19:36:03;17.40;1.00
21590;DHT22;10957;50.968;6.828;2023-05-07T19:41:05;17.40;1.00
21590;DHT22;10957;50.968;6.828;2023-05-07T19:46:06;17.30;1.00
21590;DHT22;10957;50.968;6.828;2023-05-07T19:51:07;17.20;14.30
21590;DHT22;10957;50.968;6.828;2023-05-07T19:56:09;17.20;34.00
21590;DHT22;10957;50.968;6.828;2023-05-07T20:01:11;17.20;99.40
21590;DHT22;10957;50.968;6.828;2023-05-07T20:06:12;17.20;99.90
21590;DHT22;10957;50.968;6.828;2023-05-07T20:11:13;17.20;99.90
21590;DHT22;10957;50.968;6.828;2023-05-07T20:16:15;17.20;99.90
21590;DHT22;10957;50.968;6.828;2023-05-07T20:21:16;17.10;99.90
21590;DHT22;10957;50.968;6.828;2023-05-07T20:26:18;17.10;99.90
21590;DHT22;10957;50.968;6.828;2023-05-07T20:31:19;17.00;99.90
21590;DHT22;10957;50.968;6.828;2023-05-07T20:36:20;16.90;99.90
21590;DHT22;10957;50.968;6.828;2023-05-07T20:41:25;16.80;99.90
21590;DHT22;10957;50.968;6.828;2023-05-07T20:46:26;16.80;99.90
21590;DHT22;10957;50.968;6.828;2023-05-07T20:51:27;16.70;99.90
21590;DHT22;10957;50.968;6.828;2023-05-07T20:56:32;16.70;99.90
21590;DHT22;10957;50.968;6.828;2023-05-07T21:01:36;16.60;99.90
21590;DHT22;10957;50.968;6.828;2023-05-07T21:06:38;16.60;99.90
21590;DHT22;10957;50.968;6.828;2023-05-07T21:11:39;16.50;1.00
21590;DHT22;10957;50.968;6.828;2023-05-07T21:16:40;16.50;1.00
21590;DHT22;10957;50.968;6.828;2023-05-07T21:21:42;16.50;1.00
21590;DHT22;10957;50.968;6.828;2023-05-07T21:26:44;16.40;1.00
21590;DHT22;10957;50.968;6.828;2023-05-07T21:31:45;16.40;1.00
21590;DHT22;10957;50.968;6.828;2023-05-07T21:36:46;16.30;1.00
21590;DHT22;10957;50.968;6.828;2023-05-07T21:41:48;16.30;1.00
21590;DHT22;10957;50.968;6.828;2023-05-07T21:46:49;16.30;1.00
21590;DHT22;10957;50.968;6.828;2023-05-07T21:51:51;16.20;1.00
21590;DHT22;10957;50.968;6.828;2023-05-07T21:56:52;16.20;1.00
21590;DHT22;10957;50.968;6.828;2023-05-07T22:01:54;16.30;1.00
21590;DHT22;10957;50.968;6.828;2023-05-07T22:12:22;16.20;1.00
21590;DHT22;10957;50.968;6.828;2023-05-07T22:17:23;16.20;1.00
21590;DHT22;10957;50.968;6.828;2023-05-07T22:22:24;16.10;1.00
21590;DHT22;10957;50.968;6.828;2023-05-07T22:27:25;16.00;1.00
21590;DHT22;10957;50.968;6.828;2023-05-07T22:32:27;16.00;1.00
21590;DHT22;10957;50.968;6.828;2023-05-07T22:37:29;16.00;1.00
21590;DHT22;10957;50.968;6.828;2023-05-07T22:42:31;15.90;1.00
21590;DHT22;10957;50.968;6.828;2023-05-07T22:47:32;15.90;1.00
21590;DHT22;10957;50.968;6.828;2023-05-07T22:52:33;15.90;1.00
21590;DHT22;10957;50.968;6.828;2023-05-07T22:57:35;15.90;1.00
21590;DHT22;10957;50.968;6.828;2023-05-07T23:02:36;15.80;1.00
21590;DHT22;10957;50.968;6.828;2023-05-07T23:07:37;15.70;1.00
21590;DHT22;10957;50.968;6.828;2023-05-07T23:12:38;15.80;1.00
21590;DHT22;10957;50.968;6.828;2023-05-07T23:17:40;15.70;1.00
21590;DHT22;10957;50.968;6.828;2023-05-07T23:22:41;15.70;1.00
21590;DHT22;10957;50.968;6.828;2023-05-07T23:27:43;15.80;1.00
21590;DHT22;10957;50.968;6.828;2023-05-07T23:32:44;15.60;1.00
21590;DHT22;10957;50.968;6.828;2023-05-07T23:37:46;15.60;1.00
21590;DHT22;10957;50.968;6.828;2023-05-07T23:42:47;15.60;1.00
21590;DHT22;10957;50.968;6.828;2023-05-07T23:47:48;15.60;1.00
21590;DHT22;10957;50.968;6.828;2023-05-07T23:52:49;15.60;1.00
21590;DHT22;10957;50.968;6.828;2023-05-07T23:57:51;15.50;1.00
